Nickajack Observed Data For Previous 48 Hours

Caption
Day and Hour Reservoir Elevation (behind dam)* Tailwater Elevation (below dam)* Average Hourly Discharge*
3/18/2019 1 AM CDT 632.35 606.27 124,118
3/18/2019 2 AM CDT 632.35 605.90 112,161
3/18/2019 3 AM CDT 632.32 605.80 112,279
3/18/2019 4 AM CDT 632.34 605.74 112,388
3/18/2019 5 AM CDT 632.46 605.68 112,514
3/18/2019 6 AM CDT 632.51 605.87 115,546
3/18/2019 7 AM CDT 632.60 605.96 121,793
3/18/2019 8 AM CDT 632.69 606.14 122,545
3/18/2019 9 AM CDT 632.60 606.85 140,819
3/18/2019 10 AM CDT 632.49 607.08 140,990
3/18/2019 11 AM CDT 632.27 607.23 140,861
3/18/2019 12 PM CDT 632.00 607.31 140,175
3/18/2019 1 PM CDT 632.07 606.86 129,620
3/18/2019 2 PM CDT 631.88 606.77 124,778
3/18/2019 3 PM CDT 631.87 606.24 119,656
3/18/2019 4 PM CDT 631.93 605.45 101,117
3/18/2019 5 PM CDT 632.03 605.09 96,240
3/18/2019 6 PM CDT 632.13 604.86 96,665
3/18/2019 7 PM CDT 632.18 604.70 97,020
3/18/2019 8 PM CDT 632.32 604.56 97,265
3/18/2019 9 PM CDT 632.44 604.89 101,589
3/18/2019 10 PM CDT 632.50 605.09 112,323
3/18/2019 11 PM CDT 632.53 605.18 112,197
3/19/2019 12 AM CDT 632.48 605.23 112,217
3/19/2019 1 AM CDT 632.45 605.24 112,188
3/19/2019 2 AM CDT 632.38 605.28 112,023
3/19/2019 3 AM CDT 632.35 605.28 112,007
3/19/2019 4 AM CDT 632.34 605.27 111,906
3/19/2019 5 AM CDT 632.34 605.29 111,971
3/19/2019 6 AM CDT 632.35 605.29 112,065
3/19/2019 7 AM CDT 632.55 605.29 112,135
3/19/2019 8 AM CDT 632.69 605.30 112,345
3/19/2019 9 AM CDT 632.71 605.76 121,584
3/19/2019 10 AM CDT 632.61 605.90 124,578
3/19/2019 11 AM CDT 632.50 606.01 124,452
3/19/2019 12 PM CDT 632.28 606.06 124,157
3/19/2019 1 PM CDT 632.01 606.08 123,651
3/19/2019 2 PM CDT 631.93 605.87 117,424
3/19/2019 3 PM CDT 631.94 605.24 104,979
3/19/2019 4 PM CDT 631.93 604.69 97,207
3/19/2019 5 PM CDT 631.95 604.12 88,222
3/19/2019 6 PM CDT 632.07 603.87 88,469
3/19/2019 7 PM CDT 632.10 603.72 88,726
3/19/2019 8 PM CDT 632.12 603.58 88,884
3/19/2019 9 PM CDT 632.26 603.47 89,127
3/19/2019 10 PM CDT 632.35 603.39 89,314
3/19/2019 11 PM CDT 632.44 603.33 89,495
3/20/2019 12 AM CDT 632.48 603.29 89,655
3/20/2019 1 AM CDT 632.47 603.25 89,741
3/20/2019 2 AM CDT 632.49 603.22 89,804
3/20/2019 3 AM CDT 632.42 603.52 94,936
3/20/2019 4 AM CDT 632.36 603.56 96,120
3/20/2019 5 AM CDT 632.34 603.60 96,047
3/20/2019 6 AM CDT 632.34 603.64 96,111
3/20/2019 7 AM CDT 632.46 603.65 96,172

Elevations are in feet above sea level. Discharges are in cubic feet per second and are reported at the end of the hour.